Time;durP1;ratioP1;P1;durP2;ratioP2;P2;SDS_P1;SDS_P2;PMS_P1;PMS_P2;Temp;Humidity;BMP_temperature;BMP_pressure;BME280_temperature;BME280_humidity;BME280_pressure;Samples;Min_cycle;Max_cycle;Signal;HPM_P1;HPM_P2
2022/03/04 00:02:18;;;;;;;109.60;62.30;;;;;;;-0.43;62.48;97118.58;1734833;82;27444;-87
2022/03/04 00:04:45;;;;;;;140.40;73.65;;;;;;;-0.40;62.62;97130.70;1734966;82;25773;-87
2022/03/04 00:07:11;;;;;;;154.78;80.00;;;;;;;-0.41;62.57;97123.23;1734879;82;25757;-86
2022/03/04 00:09:38;;;;;;;173.97;86.90;;;;;;;-0.39;62.62;97123.93;1735158;82;25765;-87
2022/03/04 00:12:07;;;;;;;157.60;77.60;;;;;;;-0.36;62.54;97132.05;1735128;82;25749;-86
2022/03/04 00:14:33;;;;;;;135.63;70.35;;;;;;;-0.32;62.68;97131.27;1735097;82;27430;-87
2022/03/04 00:17:00;;;;;;;118.42;62.88;;;;;;;-0.34;62.69;97135.88;1734978;82;25729;-87
2022/03/04 00:19:27;;;;;;;116.70;63.08;;;;;;;-0.37;62.65;97128.59;1735016;82;25728;-86
2022/03/04 00:21:53;;;;;;;109.70;59.80;;;;;;;-0.37;62.67;97133.90;1735121;82;25807;-88
2022/03/04 00:24:23;;;;;;;160.15;80.65;;;;;;;-0.36;62.73;97126.26;1735143;82;25749;-88
2022/03/04 00:26:49;;;;;;;187.12;79.22;;;;;;;-0.37;62.73;97127.27;1735109;82;27364;-87
2022/03/04 00:29:16;;;;;;;135.65;66.02;;;;;;;-0.31;62.70;97127.63;1735089;82;26245;-86
2022/03/04 00:31:44;;;;;;;134.20;64.20;;;;;;;-0.32;62.76;97126.80;1735049;82;25687;-87
2022/03/04 00:34:11;;;;;;;146.80;72.53;;;;;;;-0.31;62.72;97127.14;1737991;82;26704;-87
2022/03/04 00:36:40;;;;;;;177.02;78.62;;;;;;;-0.29;62.69;97124.34;1743163;82;25734;-86
2022/03/04 00:39:11;;;;;;;133.43;69.53;;;;;;;-0.30;62.70;97119.53;1743225;82;27991;-88
2022/03/04 00:41:37;;;;;;;133.67;67.87;;;;;;;-0.28;62.69;97122.04;1742973;82;25676;-88
2022/03/04 00:44:04;;;;;;;134.32;70.83;;;;;;;-0.28;62.73;97118.06;1743053;82;25761;-86
2022/03/04 00:46:31;;;;;;;140.22;68.10;;;;;;;-0.26;62.73;97116.09;1743006;82;25828;-86
2022/03/04 00:48:58;;;;;;;117.77;61.08;;;;;;;-0.24;62.68;97116.78;1743032;82;25768;-86
2022/03/04 00:51:24;;;;;;;107.78;59.20;;;;;;;-0.25;62.73;97115.11;1742904;82;27213;-86
2022/03/04 00:53:51;;;;;;;134.05;69.17;;;;;;;-0.36;62.76;97111.67;1743095;82;25766;-85
2022/03/04 00:56:17;;;;;;;128.35;61.73;;;;;;;-0.34;62.78;97116.00;1742975;82;25734;-86
2022/03/04 00:58:44;;;;;;;138.32;64.80;;;;;;;-0.31;62.87;97115.70;1743063;82;25854;-86
2022/03/04 01:01:11;;;;;;;133.32;64.53;;;;;;;-0.28;62.86;97113.59;1742867;82;25745;-86
2022/03/04 01:03:38;;;;;;;156.63;66.97;;;;;;;-0.25;62.83;97115.11;1742983;82;27584;-86
2022/03/04 01:06:06;;;;;;;146.65;71.37;;;;;;;-0.24;62.80;97120.77;1742685;82;25884;-86
2022/03/04 01:08:33;;;;;;;116.95;61.40;;;;;;;-0.23;62.77;97115.77;1742855;82;25666;-88
2022/03/04 01:11:00;;;;;;;113.62;60.08;;;;;;;-0.28;62.86;97120.71;1743141;82;26330;-86
2022/03/04 01:13:27;;;;;;;95.90;53.58;;;;;;;-0.31;62.81;97118.35;1743040;82;25681;-86
2022/03/04 01:15:58;;;;;;;106.05;55.63;;;;;;;-0.37;62.89;97115.83;1742891;82;27471;-86
2022/03/04 01:18:23;;;;;;;97.47;55.48;;;;;;;-0.44;62.90;97113.41;1742102;82;25794;-86
2022/03/04 01:20:49;;;;;;;91.95;51.60;;;;;;;-0.45;63.06;97109.92;1742988;82;25806;-87
2022/03/04 01:23:16;;;;;;;90.47;50.25;;;;;;;-0.47;63.08;97111.89;1742933;82;25701;-86
2022/03/04 01:25:43;;;;;;;93.33;51.10;;;;;;;-0.48;63.08;97110.71;1743042;82;26179;-86
2022/03/04 01:28:09;;;;;;;89.87;49.45;;;;;;;-0.45;63.04;97104.63;1743005;82;28022;-87
2022/03/04 01:30:36;;;;;;;86.67;49.20;;;;;;;-0.49;62.98;97107.26;1742906;82;25482;-87
2022/03/04 01:33:03;;;;;;;94.92;49.30;;;;;;;-0.50;63.00;97096.80;1742908;82;25718;-87
2022/03/04 01:35:29;;;;;;;92.10;50.35;;;;;;;-0.49;63.04;97106.42;1736455;82;25822;-86
2022/03/04 01:37:56;;;;;;;87.45;50.38;;;;;;;-0.51;63.12;97107.89;1735151;82;25757;-86
2022/03/04 01:40:23;;;;;;;86.47;47.53;;;;;;;-0.54;63.10;97110.00;1734973;82;27625;-87
2022/03/04 01:42:50;;;;;;;83.70;45.50;;;;;;;-0.54;63.09;97108.19;1735001;82;25761;-86
2022/03/04 01:45:17;;;;;;;81.20;46.50;;;;;;;-0.64;62.98;97108.74;1734987;82;25798;-87
2022/03/04 01:47:43;;;;;;;83.42;46.88;;;;;;;-0.77;63.10;97110.42;1735094;82;25698;-86
2022/03/04 01:50:11;;;;;;;87.27;47.35;;;;;;;-0.79;63.25;97108.89;1735028;82;25752;-86
2022/03/04 01:52:38;;;;;;;88.92;47.30;;;;;;;-0.79;63.26;97102.27;1735017;82;28039;-86
2022/03/04 01:55:08;;;;;;;85.10;46.02;;;;;;;-0.76;63.28;97100.66;1734969;82;25737;-86
2022/03/04 01:57:36;;;;;;;92.08;48.20;;;;;;;-0.76;63.38;97102.81;1735282;82;25732;-87
2022/03/04 02:00:08;;;;;;;98.55;49.93;;;;;;;-0.79;63.39;97103.59;1734728;82;25752;-86
2022/03/04 02:02:35;;;;;;;97.27;49.90;;;;;;;-0.81;63.27;97102.41;1735106;82;25879;-86
2022/03/04 02:05:02;;;;;;;104.58;51.45;;;;;;;-0.83;63.41;97107.51;1735131;82;27443;-87
2022/03/04 02:07:29;;;;;;;98.47;50.33;;;;;;;-0.81;63.47;97102.90;1734982;82;25800;-86
2022/03/04 02:09:56;;;;;;;94.32;49.42;;;;;;;-0.79;63.44;97104.91;1735074;82;26344;-85
2022/03/04 02:12:22;;;;;;;91.70;47.85;;;;;;;-0.75;63.47;97110.27;1734870;82;26300;-86
2022/03/04 02:14:49;;;;;;;91.35;47.83;;;;;;;-0.72;63.49;97104.66;1735201;82;25744;-85
2022/03/04 02:17:16;;;;;;;94.07;49.53;;;;;;;-0.71;63.46;97101.02;1734985;82;27409;-87
2022/03/04 02:19:42;;;;;;;97.82;48.60;;;;;;;-0.71;63.58;97101.02;1734871;82;25926;-87
2022/03/04 02:22:09;;;;;;;101.27;51.37;;;;;;;-0.76;63.57;97099.33;1734975;82;25745;-86
2022/03/04 02:24:36;;;;;;;100.97;52.45;;;;;;;-0.82;63.63;97101.23;1735083;82;25857;-86
2022/03/04 02:27:04;;;;;;;101.50;51.98;;;;;;;-0.81;63.67;97106.88;1735070;82;25828;-86
2022/03/04 02:29:34;;;;;;;96.72;49.03;;;;;;;-0.79;63.75;97107.57;1734987;82;27377;-86
2022/03/04 02:32:02;;;;;;;98.85;49.33;;;;;;;-0.81;63.87;97102.90;1734748;82;26226;-86
2022/03/04 02:34:29;;;;;;;99.70;50.85;;;;;;;-0.87;63.95;97105.67;1736890;82;25792;-85
2022/03/04 02:36:57;;;;;;;99.85;51.53;;;;;;;-0.92;63.93;97111.89;1742850;82;25753;-86
2022/03/04 02:39:24;;;;;;;98.67;50.73;;;;;;;-0.96;64.12;97108.34;1760926;80;25766;-87
2022/03/04 02:41:50;;;;;;;98.55;52.33;;;;;;;-1.06;64.18;97107.07;1773511;80;28164;-86
2022/03/04 02:44:17;;;;;;;99.67;50.60;;;;;;;-1.15;64.30;97107.95;1773492;80;25736;-85
2022/03/04 02:46:44;;;;;;;96.47;51.20;;;;;;;-1.18;64.41;97113.53;1773707;80;25883;-85
2022/03/04 02:49:12;;;;;;;98.03;52.73;;;;;;;-1.20;64.38;97119.46;1773512;80;25825;-86
2022/03/04 02:51:39;;;;;;;97.12;50.67;;;;;;;-1.23;64.56;97117.12;1773677;80;25788;-86
2022/03/04 02:54:06;;;;;;;101.27;52.17;;;;;;;-1.32;64.68;97117.97;1773493;80;27428;-86
2022/03/04 02:56:33;;;;;;;103.42;52.38;;;;;;;-1.36;64.59;97121.42;1773470;80;25998;-86
2022/03/04 02:59:00;;;;;;;108.10;55.08;;;;;;;-1.36;65.00;97114.80;1772433;80;25727;-86
2022/03/04 03:01:26;;;;;;;91.47;50.00;;;;;;;-1.33;65.02;97113.20;1742747;82;25684;-83
2022/03/04 03:03:53;;;;;;;99.45;51.63;;;;;;;-1.30;64.79;97118.18;1743167;81;25722;-84
2022/03/04 03:06:20;;;;;;;99.20;51.88;;;;;;;-1.28;64.88;97116.72;1743006;82;28163;-83
2022/03/04 03:08:46;;;;;;;99.87;51.92;;;;;;;-1.27;64.99;97119.22;1742487;81;25798;-83
2022/03/04 03:11:13;;;;;;;88.15;48.42;;;;;;;-1.26;64.96;97118.25;1743316;81;25720;-83
2022/03/04 03:13:40;;;;;;;87.50;45.10;;;;;;;-1.27;65.01;97123.20;1743012;82;25923;-83
2022/03/04 03:16:07;;;;;;;70.00;37.88;;;;;;;-1.24;64.97;97119.43;1742874;82;25808;-83
2022/03/04 03:18:33;;;;;;;73.83;39.95;;;;;;;-1.20;64.87;97129.56;1743284;82;27490;-85
2022/03/04 03:21:00;;;;;;;70.87;37.35;;;;;;;-1.23;64.59;97123.26;1742792;82;25719;-85
2022/03/04 03:23:26;;;;;;;71.77;36.28;;;;;;;-1.22;64.46;97127.58;1742872;82;25720;-85
2022/03/04 03:25:53;;;;;;;68.15;35.90;;;;;;;-1.21;64.61;97133.19;1742812;82;25841;-85
2022/03/04 03:28:20;;;;;;;70.85;39.08;;;;;;;-1.21;64.65;97131.87;1742971;82;25709;-86
2022/03/04 03:30:46;;;;;;;73.42;39.35;;;;;;;-1.25;64.65;97134.97;1742811;82;27195;-85
2022/03/04 03:33:13;;;;;;;75.05;38.85;;;;;;;-1.26;64.83;97140.75;1742441;81;25746;-84
2022/03/04 03:35:40;;;;;;;82.53;42.90;;;;;;;-1.27;64.78;97140.89;1742727;82;26904;-85
2022/03/04 03:38:06;;;;;;;85.38;43.80;;;;;;;-1.28;64.88;97137.41;1742858;82;25972;-86
2022/03/04 03:40:33;;;;;;;86.17;45.03;;;;;;;-1.24;64.94;97136.16;1743031;82;25697;-85
2022/03/04 03:42:59;;;;;;;87.62;45.60;;;;;;;-1.22;64.77;97140.82;1742869;81;27357;-85
2022/03/04 03:45:26;;;;;;;92.75;47.43;;;;;;;-1.24;64.80;97133.50;1742898;82;25463;-87
2022/03/04 03:47:54;;;;;;;94.30;49.23;;;;;;;-1.17;64.88;97131.94;1742903;82;25252;-85
2022/03/04 03:50:20;;;;;;;97.90;52.23;;;;;;;-1.09;64.74;97138.66;1742868;82;25831;-87
2022/03/04 03:52:47;;;;;;;93.75;51.33;;;;;;;-1.01;64.61;97146.38;1742928;82;25755;-85
2022/03/04 03:55:13;;;;;;;81.95;45.52;;;;;;;-0.94;64.54;97146.12;1742890;82;28117;-87
2022/03/04 03:57:40;;;;;;;84.52;45.35;;;;;;;-0.89;64.47;97143.89;1742830;81;25737;-85
2022/03/04 04:00:09;;;;;;;85.57;45.25;;;;;;;-0.87;64.44;97141.44;1742928;82;25725;-86
2022/03/04 04:02:36;;;;;;;87.75;47.38;;;;;;;-0.86;64.41;97138.30;1742864;82;25828;-87
2022/03/04 04:05:03;;;;;;;88.58;44.13;;;;;;;-0.83;64.32;97139.31;1742983;82;25705;-85
2022/03/04 04:07:29;;;;;;;87.35;46.08;;;;;;;-0.81;64.22;97138.67;1742843;81;28275;-85
2022/03/04 04:09:56;;;;;;;82.37;43.25;;;;;;;-0.78;64.20;97139.72;1742863;82;25743;-85
2022/03/04 04:12:22;;;;;;;78.85;43.90;;;;;;;-0.76;64.18;97135.11;1742891;82;25748;-84
2022/03/04 04:14:49;;;;;;;84.30;43.38;;;;;;;-0.72;64.08;97141.27;1742996;82;25842;-84
2022/03/04 04:17:16;;;;;;;77.97;43.90;;;;;;;-0.68;64.03;97140.50;1742941;82;25819;-84
2022/03/04 04:19:42;;;;;;;79.07;42.05;;;;;;;-0.64;63.92;97145.85;1742998;82;27417;-84
2022/03/04 04:22:09;;;;;;;77.45;41.95;;;;;;;-0.65;63.95;97148.16;1742867;82;25796;-85
2022/03/04 04:24:35;;;;;;;83.12;43.30;;;;;;;-0.76;63.96;97148.36;1742871;82;25223;-84
2022/03/04 04:27:02;;;;;;;82.60;44.85;;;;;;;-0.80;64.04;97139.86;1742951;82;25677;-84
2022/03/04 04:29:29;;;;;;;79.70;43.20;;;;;;;-0.82;63.98;97138.33;1743096;82;25650;-84
2022/03/04 04:31:56;;;;;;;100.65;54.00;;;;;;;-0.79;64.03;97136.23;1742957;82;27519;-85
2022/03/04 04:34:24;;;;;;;89.87;51.20;;;;;;;-0.71;64.02;97148.73;1742283;81;25693;-84
2022/03/04 04:36:51;;;;;;;82.17;44.25;;;;;;;-0.66;63.94;97146.48;1742586;82;25709;-85
2022/03/04 04:39:17;;;;;;;82.40;42.48;;;;;;;-0.63;63.89;97151.50;1742879;82;25736;-84
2022/03/04 04:41:44;;;;;;;78.12;44.42;;;;;;;-0.62;63.86;97157.15;1742936;82;25879;-85
2022/03/04 04:44:11;;;;;;;79.72;44.23;;;;;;;-0.61;63.81;97156.66;1743173;82;27383;-84
2022/03/04 04:46:38;;;;;;;82.30;43.38;;;;;;;-0.60;63.74;97160.46;1743005;82;26241;-86
2022/03/04 04:49:05;;;;;;;82.45;43.70;;;;;;;-0.60;63.71;97155.16;1743030;82;25684;-85
2022/03/04 04:51:31;;;;;;;78.28;43.70;;;;;;;-0.60;63.76;97151.19;1743058;82;25897;-85
2022/03/04 04:53:58;;;;;;;81.82;44.88;;;;;;;-0.72;63.62;97156.34;1743220;82;25716;-87
2022/03/04 04:56:24;;;;;;;76.60;43.25;;;;;;;-0.82;63.88;97156.39;1742953;82;27273;-85
2022/03/04 04:58:51;;;;;;;78.85;42.90;;;;;;;-0.88;63.95;97154.84;1743012;81;25972;-85
2022/03/04 05:01:17;;;;;;;81.28;44.20;;;;;;;-0.98;64.19;97155.38;1742772;82;25733;-87
2022/03/04 05:03:44;;;;;;;86.02;44.20;;;;;;;-1.05;64.30;97158.23;1743049;82;25823;-87
2022/03/04 05:06:11;;;;;;;84.75;45.40;;;;;;;-1.03;64.49;97161.58;1743068;82;25772;-84
2022/03/04 05:08:37;;;;;;;93.15;52.78;;;;;;;-0.99;64.45;97159.84;1743028;82;28081;-84
2022/03/04 05:11:04;;;;;;;109.45;58.63;;;;;;;-0.94;64.37;97158.89;1743026;82;25266;-84
2022/03/04 05:13:30;;;;;;;132.30;67.42;;;;;;;-0.92;64.38;97164.05;1743111;82;25753;-85
2022/03/04 05:15:57;;;;;;;90.90;49.00;;;;;;;-0.88;64.38;97169.41;1743010;82;25789;-88
2022/03/04 05:18:24;;;;;;;82.60;44.45;;;;;;;-0.87;64.29;97164.45;1743054;82;25998;-88
2022/03/04 05:20:50;;;;;;;91.02;50.83;;;;;;;-0.91;64.22;97170.53;1743183;81;27524;-84
2022/03/04 05:23:59;;;;;;;79.12;45.67;;;;;;;-0.88;64.22;97173.38;1742920;82;25828;-84
2022/03/04 05:25:45;;;;;;;83.75;44.00;;;;;;;-0.85;64.52;97182.38;1738804;82;25728;-84
2022/03/04 05:28:12;;;;;;;86.37;41.30;;;;;;;-0.85;64.32;97183.70;1743137;82;25792;-85
2022/03/04 05:30:39;;;;;;;89.37;42.62;;;;;;;-0.83;64.31;97183.03;1742726;81;25867;-82
2022/03/04 05:33:06;;;;;;;87.42;41.37;;;;;;;-0.83;64.21;97189.17;1743033;82;27401;-84
2022/03/04 05:35:32;;;;;;;84.72;41.92;;;;;;;-0.82;64.11;97194.82;1739988;82;25666;-87
2022/03/04 05:37:59;;;;;;;95.25;42.70;;;;;;;-0.81;64.10;97191.68;1730198;82;25661;-87
2022/03/04 05:40:25;;;;;;;89.15;42.53;;;;;;;-0.88;64.08;97191.93;1730185;82;25768;-85
2022/03/04 05:42:52;;;;;;;88.25;42.53;;;;;;;-0.94;64.08;97196.47;1730290;82;25712;-87
2022/03/04 05:45:19;;;;;;;91.10;43.80;;;;;;;-0.97;64.14;97191.00;1730092;82;27338;-85
2022/03/04 05:47:45;;;;;;;86.87;42.73;;;;;;;-0.97;64.18;97194.97;1730163;82;25783;-86
2022/03/04 05:50:13;;;;;;;88.03;44.70;;;;;;;-0.95;64.15;97192.98;1730155;82;25787;-84
2022/03/04 05:52:40;;;;;;;94.50;43.68;;;;;;;-0.88;64.15;97201.20;1730177;82;25692;-87
2022/03/04 05:55:08;;;;;;;112.52;49.63;;;;;;;-0.87;64.03;97204.20;1730166;82;25836;-84
2022/03/04 05:57:35;;;;;;;95.32;45.63;;;;;;;-0.84;63.99;97199.91;1730129;82;28312;-84
2022/03/04 06:00:01;;;;;;;85.53;42.30;;;;;;;-0.84;64.08;97202.08;1729808;82;25690;-84
2022/03/04 06:02:28;;;;;;;95.57;43.68;;;;;;;-0.88;64.08;97202.53;1730206;82;25796;-87
2022/03/04 06:04:55;;;;;;;83.78;42.45;;;;;;;-0.87;64.21;97205.53;1730105;82;25729;-86
2022/03/04 06:07:21;;;;;;;98.97;44.60;;;;;;;-0.82;64.12;97206.75;1730251;82;25750;-86
2022/03/04 06:09:48;;;;;;;81.97;40.43;;;;;;;-0.79;64.05;97209.11;1730149;82;27610;-88
2022/03/04 06:12:15;;;;;;;88.60;40.98;;;;;;;-0.91;64.01;97194.87;1730100;82;25753;-88
2022/03/04 06:14:41;;;;;;;92.53;42.55;;;;;;;-0.86;63.94;97208.53;1730242;82;25729;-86
2022/03/04 06:17:08;;;;;;;87.75;40.85;;;;;;;-0.96;64.10;97214.33;1730109;82;25827;-84
2022/03/04 06:19:34;;;;;;;84.35;40.73;;;;;;;-0.95;64.26;97216.00;1730134;82;25650;-85
2022/03/04 06:22:01;;;;;;;84.28;40.63;;;;;;;-0.94;64.36;97218.99;1730322;82;28157;-86
2022/03/04 06:24:28;;;;;;;67.12;35.05;;;;;;;-0.98;64.38;97226.42;1730066;82;25755;-85
2022/03/04 06:26:54;;;;;;;77.58;38.38;;;;;;;-0.97;64.48;97224.61;1730194;82;25752;-86
2022/03/04 06:29:21;;;;;;;81.10;39.78;;;;;;;-1.04;64.63;97232.77;1730110;82;26428;-86
2022/03/04 06:31:48;;;;;;;78.70;39.15;;;;;;;-1.02;64.71;97234.78;1730134;82;25678;-86
2022/03/04 06:34:15;;;;;;;75.32;38.23;;;;;;;-0.95;64.79;97233.22;1730233;82;27394;-84
2022/03/04 06:36:41;;;;;;;74.40;36.40;;;;;;;-0.92;64.82;97240.89;1736927;82;25626;-85
2022/03/04 06:39:08;;;;;;;70.80;37.05;;;;;;;-0.89;64.82;97237.95;1742954;82;25787;-84
2022/03/04 06:41:36;;;;;;;72.00;37.38;;;;;;;-0.89;64.84;97241.93;1743001;82;25764;-87
2022/03/04 06:44:03;;;;;;;68.45;36.53;;;;;;;-0.85;64.94;97249.95;1743069;81;25649;-86
2022/03/04 06:46:30;;;;;;;73.90;37.42;;;;;;;-0.82;64.91;97245.66;1742892;82;27390;-86
2022/03/04 06:48:57;;;;;;;83.25;41.30;;;;;;;-0.78;64.82;97241.75;1742910;82;25730;-86
2022/03/04 06:51:23;;;;;;;98.45;44.13;;;;;;;-0.74;64.84;97241.81;1742917;82;25725;-85
2022/03/04 06:53:50;;;;;;;101.18;46.68;;;;;;;-0.70;64.81;97243.17;1743065;82;25821;-87
2022/03/04 06:56:17;;;;;;;75.65;39.55;;;;;;;-0.67;64.90;97245.55;1742969;82;25772;-83
2022/03/04 06:58:44;;;;;;;76.60;40.43;;;;;;;-0.64;64.81;97250.56;1743088;81;27363;-85
2022/03/04 07:01:11;;;;;;;66.80;36.50;;;;;;;-0.59;64.84;97250.11;1742884;81;26318;-84
2022/03/04 07:03:38;;;;;;;77.20;40.17;;;;;;;-0.60;64.96;97247.11;1743067;81;25717;-84
2022/03/04 07:06:04;;;;;;;79.12;38.35;;;;;;;-0.68;65.02;97249.17;1742893;82;25749;-87
2022/03/04 07:08:34;;;;;;;74.25;38.98;;;;;;;-0.69;65.27;97247.50;1743048;82;25654;-85
2022/03/04 07:10:59;;;;;;;75.67;40.40;;;;;;;-0.77;65.23;97252.70;1742804;82;27489;-88
2022/03/04 07:13:26;;;;;;;81.82;42.05;;;;;;;-0.81;65.38;97252.64;1742905;82;25764;-85
2022/03/04 07:15:52;;;;;;;84.50;43.38;;;;;;;-0.77;65.43;97242.94;1743130;81;25661;-87
2022/03/04 07:18:19;;;;;;;84.52;44.05;;;;;;;-0.73;65.52;97247.47;1742910;82;25664;-86
2022/03/04 07:20:46;;;;;;;77.62;40.95;;;;;;;-0.65;65.67;97248.89;1742791;82;25657;-86
2022/03/04 07:23:14;;;;;;;82.82;41.33;;;;;;;-0.63;65.58;97248.27;1742937;82;27362;-84
2022/03/04 07:25:40;;;;;;;82.47;43.17;;;;;;;-0.73;65.43;97248.80;1742784;82;25650;-84
2022/03/04 07:28:07;;;;;;;68.35;40.00;;;;;;;-0.75;65.69;97248.09;1743069;82;26180;-84
2022/03/04 07:30:35;;;;;;;71.47;39.63;;;;;;;-0.74;65.67;97247.13;1743134;82;26288;-85
2022/03/04 07:33:02;;;;;;;69.35;40.48;;;;;;;-0.70;65.75;97257.76;1742960;82;25665;-85
2022/03/04 07:35:29;;;;;;;69.30;39.45;;;;;;;-0.64;65.73;97253.22;1742868;82;28194;-85
2022/03/04 07:37:56;;;;;;;66.72;38.55;;;;;;;-0.55;65.86;97260.78;1724656;81;25805;-88
2022/03/04 07:40:22;;;;;;;68.55;37.58;;;;;;;-0.48;65.76;97260.04;1723018;83;25654;-84
2022/03/04 07:42:49;;;;;;;75.00;40.10;;;;;;;-0.43;65.65;97256.47;1723140;83;26344;-85
2022/03/04 07:45:16;;;;;;;72.05;40.30;;;;;;;-0.40;65.70;97254.86;1723089;83;25682;-85
2022/03/04 07:47:43;;;;;;;70.35;41.42;;;;;;;-0.42;65.85;97263.45;1723079;83;27368;-83
2022/03/04 07:50:13;;;;;;;70.00;39.53;;;;;;;-0.38;65.95;97264.83;1722985;83;25759;-84
2022/03/04 07:52:41;;;;;;;71.33;41.35;;;;;;;-0.30;65.89;97264.58;1723028;83;25738;-86
2022/03/04 07:55:11;;;;;;;72.62;41.92;;;;;;;-0.26;66.00;97265.97;1722967;83;25717;-85
2022/03/04 07:57:38;;;;;;;75.75;39.50;;;;;;;-0.17;66.10;97266.39;1723083;83;25702;-85
2022/03/04 08:00:08;;;;;;;76.80;42.25;;;;;;;-0.12;66.07;97265.47;1723156;83;27449;-84
2022/03/04 08:02:35;;;;;;;67.92;38.28;;;;;;;-0.16;66.11;97264.09;1723145;83;26056;-83
2022/03/04 08:05:01;;;;;;;67.80;38.58;;;;;;;-0.16;66.03;97268.91;1723237;83;25647;-84
2022/03/04 08:07:28;;;;;;;69.75;40.20;;;;;;;-0.22;65.98;97269.48;1722962;83;25674;-84
2022/03/04 08:09:55;;;;;;;69.20;40.90;;;;;;;-0.29;66.26;97276.38;1723109;83;25668;-86
2022/03/04 08:12:22;;;;;;;70.30;40.08;;;;;;;-0.24;66.37;97269.31;1722720;83;27427;-85
2022/03/04 08:14:49;;;;;;;74.55;41.28;;;;;;;-0.23;66.26;97269.62;1722987;83;26332;-86
2022/03/04 08:17:16;;;;;;;71.47;40.08;;;;;;;-0.22;66.41;97273.45;1722952;83;25726;-85
2022/03/04 08:19:42;;;;;;;68.07;39.53;;;;;;;-0.26;66.44;97279.23;1723277;83;25889;-84
2022/03/04 08:22:09;;;;;;;73.95;40.70;;;;;;;-0.18;66.56;97281.97;1723233;83;25672;-84
2022/03/04 08:24:36;;;;;;;65.60;39.60;;;;;;;-0.09;66.61;97281.08;1723319;83;27991;-86
2022/03/04 08:27:02;;;;;;;68.02;38.17;;;;;;;-0.01;66.67;97277.20;1723106;83;25674;-85
2022/03/04 08:29:29;;;;;;;68.25;39.35;;;;;;;0.03;66.58;97275.91;1723127;83;25672;-86
2022/03/04 08:31:56;;;;;;;64.80;37.90;;;;;;;-0.01;66.49;97278.53;1723084;83;25678;-84
2022/03/04 08:34:22;;;;;;;68.10;37.05;;;;;;;-0.07;66.49;97286.58;1723193;83;25710;-84
2022/03/04 08:36:52;;;;;;;72.53;39.58;;;;;;;-0.08;66.63;97284.91;1726569;82;27378;-85
2022/03/04 08:39:19;;;;;;;69.37;36.90;;;;;;;-0.03;66.62;97284.48;1735000;82;25754;-84
2022/03/04 08:41:46;;;;;;;63.30;36.80;;;;;;;-0.03;66.62;97289.78;1735190;82;25723;-84
2022/03/04 08:44:13;;;;;;;69.80;39.05;;;;;;;-0.25;66.49;97292.34;1734989;82;25679;-84
2022/03/04 08:46:39;;;;;;;65.80;36.42;;;;;;;-0.38;66.87;97288.70;1714116;82;25284;-84
2022/03/04 08:49:07;;;;;;;73.07;40.25;;;;;;;-0.33;67.08;97292.71;1735216;82;27367;-83
2022/03/04 08:51:33;;;;;;;76.05;40.43;;;;;;;-0.29;67.07;97299.41;1735127;82;25781;-85
2022/03/04 08:54:00;;;;;;;78.22;42.23;;;;;;;-0.31;67.00;97298.71;1735071;82;25773;-85
2022/03/04 08:56:26;;;;;;;76.17;43.85;;;;;;;-0.44;67.04;97297.72;1735149;82;26109;-84
2022/03/04 08:58:53;;;;;;;74.75;40.15;;;;;;;-0.50;67.32;97302.29;1735195;82;25725;-83
2022/03/04 09:01:20;;;;;;;77.12;41.63;;;;;;;-0.43;67.42;97304.20;1735120;82;27969;-85
2022/03/04 09:03:46;;;;;;;78.72;45.95;;;;;;;-0.36;67.35;97301.30;1734934;82;25690;-85
2022/03/04 09:06:13;;;;;;;76.77;43.00;;;;;;;-0.25;67.38;97299.47;1735140;82;25723;-84
2022/03/04 09:08:40;;;;;;;71.25;40.63;;;;;;;-0.23;67.36;97304.11;1734917;82;25754;-85
2022/03/04 09:11:06;;;;;;;77.72;42.70;;;;;;;-0.22;67.41;97311.92;1735044;82;25623;-84
2022/03/04 09:13:33;;;;;;;74.55;40.48;;;;;;;-0.16;67.34;97314.00;1735053;82;27368;-84
2022/03/04 09:16:01;;;;;;;72.03;39.73;;;;;;;-0.07;67.28;97313.61;1735057;82;25784;-85
2022/03/04 09:18:28;;;;;;;71.77;41.25;;;;;;;-0.11;67.20;97315.71;1735086;82;25767;-86
2022/03/04 09:20:55;;;;;;;73.70;41.05;;;;;;;-0.17;67.26;97311.50;1735023;82;26270;-84
2022/03/04 09:23:22;;;;;;;71.50;39.55;;;;;;;-0.16;67.48;97315.83;1735194;82;25718;-84
2022/03/04 09:25:49;;;;;;;71.80;38.70;;;;;;;-0.09;67.51;97316.89;1735081;82;28033;-85
2022/03/04 09:28:16;;;;;;;71.75;39.25;;;;;;;0.03;67.36;97321.02;1734953;82;25674;-83
2022/03/04 09:30:43;;;;;;;68.70;36.73;;;;;;;0.16;67.36;97324.16;1735060;82;25785;-83
2022/03/04 09:33:10;;;;;;;71.70;39.20;;;;;;;0.29;67.11;97319.83;1735027;82;26504;-86
2022/03/04 09:35:37;;;;;;;72.97;39.83;;;;;;;0.38;67.06;97322.06;1735085;82;25637;-84
2022/03/04 09:38:03;;;;;;;70.12;37.13;;;;;;;0.48;66.96;97318.87;1726524;82;27313;-83
2022/03/04 09:40:32;;;;;;;66.37;36.08;;;;;;;0.56;66.81;97315.80;1722952;83;25749;-84
2022/03/04 09:42:59;;;;;;;67.08;37.28;;;;;;;0.66;66.64;97319.22;1723117;83;25252;-83
2022/03/04 09:45:26;;;;;;;63.73;36.95;;;;;;;0.74;66.55;97321.10;1723147;83;26459;-83
2022/03/04 09:47:53;;;;;;;63.00;38.23;;;;;;;0.70;66.49;97319.27;1722783;83;25745;-84
2022/03/04 09:50:19;;;;;;;73.12;41.00;;;;;;;0.70;66.54;97315.77;1723157;83;27359;-85
2022/03/04 09:52:46;;;;;;;70.85;37.85;;;;;;;0.71;66.48;97322.76;1722993;83;26388;-83
2022/03/04 09:55:14;;;;;;;68.15;37.25;;;;;;;0.77;66.40;97314.16;1723065;83;25757;-84
2022/03/04 09:57:42;;;;;;;73.52;38.80;;;;;;;0.85;66.23;97326.18;1723041;83;25818;-84
2022/03/04 10:00:11;;;;;;;64.82;37.25;;;;;;;0.87;66.12;97326.87;1723053;83;25245;-83
2022/03/04 10:02:38;;;;;;;68.35;39.98;;;;;;;0.85;66.24;97327.51;1722762;83;27437;-83
2022/03/04 10:05:06;;;;;;;67.72;38.85;;;;;;;0.87;66.31;97321.55;1723055;83;25825;-83
2022/03/04 10:07:44;;;;;;;67.78;36.55;;;;;;;0.83;66.16;97318.87;1723055;83;26329;-85
2022/03/04 10:10:22;;;;;;;67.60;36.38;;;;;;;0.74;66.12;97325.08;1723054;83;25765;-84
2022/03/04 10:12:51;;;;;;;65.35;36.23;;;;;;;0.65;66.13;97316.70;1722758;83;25745;-83
2022/03/04 10:15:19;;;;;;;71.80;38.53;;;;;;;0.63;66.44;97318.18;1723165;83;27561;-84
2022/03/04 10:18:05;;;;;;;70.62;38.33;;;;;;;0.74;66.49;97315.78;1722962;82;25739;-84
2022/03/04 10:20:37;;;;;;;73.52;40.85;;;;;;;0.82;66.37;97320.36;1722990;83;25754;-82
2022/03/04 10:23:20;;;;;;;71.67;41.00;;;;;;;0.86;66.10;97319.88;1722799;83;26292;-84
2022/03/04 10:25:55;;;;;;;70.45;39.30;;;;;;;0.88;66.24;97321.89;1723038;83;26276;-83
2022/03/04 10:28:24;;;;;;;62.48;37.10;;;;;;;0.93;66.23;97326.27;1722285;82;27458;-83
2022/03/04 10:30:53;;;;;;;69.77;36.83;;;;;;;0.88;65.99;97325.05;1722848;83;25861;-83
2022/03/04 10:33:23;;;;;;;70.55;38.30;;;;;;;0.72;66.17;97323.10;1723045;83;25867;-83
2022/03/04 10:36:09;;;;;;;62.70;37.08;;;;;;;0.70;66.47;97320.59;1723115;83;25747;-83
2022/03/04 10:38:37;;;;;;;66.90;37.10;;;;;;;0.78;66.41;97318.48;1731630;82;25747;-84
2022/03/04 10:41:33;;;;;;;64.10;36.83;;;;;;;0.88;66.27;97320.56;1734977;82;27412;-83
2022/03/04 10:43:59;;;;;;;67.47;36.03;;;;;;;0.94;66.18;97324.45;1699168;84;26245;-83
2022/03/04 10:46:31;;;;;;;67.80;38.48;;;;;;;0.93;66.17;97320.95;1699314;84;25720;-82
2022/03/04 10:48:57;;;;;;;;;;;;;;;0.71;66.07;97318.77;1701773;84;25845;-84
2022/03/04 10:51:37;;;;;;;66.15;37.55;;;;;;;0.52;66.24;97316.24;1699156;83;25719;-83
2022/03/04 10:54:18;;;;;;;70.15;40.03;;;;;;;0.44;66.61;97314.35;1687075;84;27583;-86
2022/03/04 10:56:55;;;;;;;71.50;39.18;;;;;;;0.54;66.89;97313.78;1737578;82;25721;-81
2022/03/04 10:59:24;;;;;;;61.90;36.80;;;;;;;0.66;66.92;97318.37;1735019;82;25770;-82
2022/03/04 11:01:57;;;;;;;71.75;38.92;;;;;;;0.73;66.83;97314.95;1734950;82;25712;-82
2022/03/04 11:04:24;;;;;;;67.75;38.60;;;;;;;0.79;66.80;97318.00;1734965;82;25733;-81
2022/03/04 11:06:51;;;;;;;71.05;38.23;;;;;;;0.87;66.88;97322.88;1734906;82;27361;-81
2022/03/04 11:09:27;;;;;;;69.35;38.02;;;;;;;0.95;66.83;97317.66;1734968;82;26215;-82
2022/03/04 11:11:54;;;;;;;67.70;37.13;;;;;;;1.06;66.74;97314.75;1735053;82;25721;-81
2022/03/04 11:14:22;;;;;;;69.27;38.60;;;;;;;1.13;66.56;97315.45;1734949;82;25718;-83
2022/03/04 11:16:50;;;;;;;65.67;36.42;;;;;;;1.18;66.45;97315.83;1734914;82;25690;-83
2022/03/04 11:19:18;;;;;;;62.10;34.85;;;;;;;1.21;66.35;97316.34;1734943;82;27377;-83